Hovedside
METAR-TAF:

METAR-TAF

Lufthavner :

Såtenäs, Sverige

breddegrad: 58-26N, lengdegrad: 012-42E, høyde over havet: 54 m

Gjeldene værobservasjon

Denne rapporten ble laget for 25 minutter siden, klokken 06:50 UTC
Vind 8 kt fra Sør-sørøst
Temperatur 11°C
Luftfuktighet 71%
Trykk 1024 hPa
Sikt 10 km eller mer
ingen skyer under 1500 m og ingen bygeskyer

METAR: ESIB 230650Z 16008KT CAVOK 11/06 Q1024

Tid: 09:15 (07:15 UTC)

Varsel

Denne rapporten ble laget for 2 timer og 25 minutter siden, klokken 04:50 UTC
Varsel gyldig fra 23. klokken 05 UTC til 23. klokken 14 UTC
Vind 5 kt fra Øst-sørøst
Sikt 10 km eller mer
ingen skyer under 1500 m og ingen bygeskyer
Blir
fra 23. klokken 07 UTC til 23. klokken 10 UTC
Vind 8 kt fra Øst-sørøst med vindkast opp mot 18 kt

TAF: ESIB 230450Z 2305/2314 12005KT CAVOK BECMG 2307/2310 12008G18KT RMK MIL

Værobservasjoner og værvarsel for over 4000 flyplasser (METAR- og TAF-rapporter).

Tilgjengelige stasjoner er representert av de røde og gule prikkene på kartet.

Hold musepekeren over prikken for å se navnet på stasjonen.

Klikk så for å se værobservasjoner og -varsler.

For å forandre kartet kan du klikke på den grønne knappen med svart kryss for å zoome inn, på den grønne knappen med strek for å zoome ut, eller på de grønne pilene for å se tilstøtende kart.


METAR-TAF: